sensor_id;sensor_type;location;lat;lon;timestamp;pressure;altitude;pressure_sealevel;temperature;humidity
63121;BME280;54478;48.684;20.114;2023-03-25T00:00:23;97240.78;;;12.25;100.00
63121;BME280;54478;48.684;20.114;2023-03-25T00:02:51;97230.16;;;12.37;100.00
63121;BME280;54478;48.684;20.114;2023-03-25T00:05:20;97229.97;;;12.21;100.00
63121;BME280;54478;48.684;20.114;2023-03-25T00:07:51;97227.88;;;12.48;100.00
63121;BME280;54478;48.684;20.114;2023-03-25T00:10:19;97229.41;;;12.36;100.00
63121;BME280;54478;48.684;20.114;2023-03-25T00:12:48;97206.53;;;12.38;100.00
63121;BME280;54478;48.684;20.114;2023-03-25T00:15:16;97204.03;;;12.47;100.00
63121;BME280;54478;48.684;20.114;2023-03-25T00:17:44;97193.94;;;12.58;100.00
63121;BME280;54478;48.684;20.114;2023-03-25T00:20:13;97181.31;;;12.43;100.00
63121;BME280;54478;48.684;20.114;2023-03-25T00:22:41;97167.53;;;12.45;100.00
63121;BME280;54478;48.684;20.114;2023-03-25T00:25:13;97167.34;;;12.43;100.00
63121;BME280;54478;48.684;20.114;2023-03-25T00:27:47;97154.81;;;12.23;100.00
63121;BME280;54478;48.684;20.114;2023-03-25T00:30:15;97149.56;;;12.20;100.00
63121;BME280;54478;48.684;20.114;2023-03-25T00:32:45;97146.22;;;12.34;100.00
63121;BME280;54478;48.684;20.114;2023-03-25T00:35:20;97159.34;;;12.13;100.00
63121;BME280;54478;48.684;20.114;2023-03-25T00:37:50;97154.72;;;12.15;100.00
63121;BME280;54478;48.684;20.114;2023-03-25T00:40:22;97151.84;;;12.21;100.00
63121;BME280;54478;48.684;20.114;2023-03-25T00:42:51;97155.91;;;12.07;100.00
63121;BME280;54478;48.684;20.114;2023-03-25T00:45:19;97153.13;;;11.93;100.00
63121;BME280;54478;48.684;20.114;2023-03-25T00:47:47;97151.22;;;11.88;100.00
63121;BME280;54478;48.684;20.114;2023-03-25T00:50:16;97144.97;;;11.82;100.00
63121;BME280;54478;48.684;20.114;2023-03-25T00:52:44;97138.91;;;11.97;100.00
63121;BME280;54478;48.684;20.114;2023-03-25T00:55:13;97112.59;;;11.92;100.00
63121;BME280;54478;48.684;20.114;2023-03-25T00:57:41;97091.34;;;12.16;100.00
63121;BME280;54478;48.684;20.114;2023-03-25T01:00:14;97100.06;;;11.85;100.00
63121;BME280;54478;48.684;20.114;2023-03-25T01:02:43;97100.38;;;11.82;100.00
63121;BME280;54478;48.684;20.114;2023-03-25T01:05:12;97088.56;;;12.03;100.00
63121;BME280;54478;48.684;20.114;2023-03-25T01:07:41;97114.00;;;11.85;100.00
63121;BME280;54478;48.684;20.114;2023-03-25T01:10:09;97125.56;;;11.63;100.00
63121;BME280;54478;48.684;20.114;2023-03-25T01:12:38;97123.44;;;11.69;100.00
63121;BME280;54478;48.684;20.114;2023-03-25T01:15:08;97114.22;;;11.74;100.00
63121;BME280;54478;48.684;20.114;2023-03-25T01:17:37;97098.97;;;11.89;100.00
63121;BME280;54478;48.684;20.114;2023-03-25T01:20:06;97118.69;;;12.17;100.00
63121;BME280;54478;48.684;20.114;2023-03-25T01:22:36;97135.75;;;11.87;100.00
63121;BME280;54478;48.684;20.114;2023-03-25T01:25:05;97113.66;;;11.76;100.00
63121;BME280;54478;48.684;20.114;2023-03-25T01:27:33;97118.16;;;11.92;100.00
63121;BME280;54478;48.684;20.114;2023-03-25T01:30:02;97100.28;;;11.88;100.00
63121;BME280;54478;48.684;20.114;2023-03-25T01:32:30;97084.63;;;11.58;100.00
63121;BME280;54478;48.684;20.114;2023-03-25T01:34:59;97077.03;;;11.45;100.00
63121;BME280;54478;48.684;20.114;2023-03-25T01:37:27;97045.50;;;11.63;100.00
63121;BME280;54478;48.684;20.114;2023-03-25T01:39:56;97046.78;;;11.62;100.00
63121;BME280;54478;48.684;20.114;2023-03-25T01:42:24;97013.78;;;11.53;100.00
63121;BME280;54478;48.684;20.114;2023-03-25T01:47:18;97003.94;;;11.52;100.00
63121;BME280;54478;48.684;20.114;2023-03-25T01:49:46;96997.72;;;11.46;100.00
63121;BME280;54478;48.684;20.114;2023-03-25T01:52:17;96995.84;;;11.75;100.00
63121;BME280;54478;48.684;20.114;2023-03-25T01:54:49;96988.03;;;11.74;100.00
63121;BME280;54478;48.684;20.114;2023-03-25T01:57:20;96997.31;;;11.42;100.00
63121;BME280;54478;48.684;20.114;2023-03-25T01:59:52;96972.44;;;11.30;100.00
63121;BME280;54478;48.684;20.114;2023-03-25T02:02:22;96960.34;;;11.28;100.00
63121;BME280;54478;48.684;20.114;2023-03-25T02:05:03;96906.78;;;11.35;100.00
63121;BME280;54478;48.684;20.114;2023-03-25T02:07:37;96861.56;;;11.29;100.00
63121;BME280;54478;48.684;20.114;2023-03-25T02:10:09;96847.06;;;11.44;100.00
63121;BME280;54478;48.684;20.114;2023-03-25T02:12:38;96832.78;;;11.47;100.00
63121;BME280;54478;48.684;20.114;2023-03-25T02:15:08;96832.78;;;11.47;100.00
63121;BME280;54478;48.684;20.114;2023-03-25T02:18:12;96818.03;;;11.39;100.00
63121;BME280;54478;48.684;20.114;2023-03-25T02:26:31;96785.19;;;11.66;100.00
63121;BME280;54478;48.684;20.114;2023-03-25T02:29:12;96777.25;;;11.49;100.00
63121;BME280;54478;48.684;20.114;2023-03-25T02:40:04;96734.38;;;11.31;100.00
63121;BME280;54478;48.684;20.114;2023-03-25T02:42:33;96746.81;;;11.51;100.00
63121;BME280;54478;48.684;20.114;2023-03-25T02:45:10;96729.06;;;11.62;100.00
63121;BME280;54478;48.684;20.114;2023-03-25T02:47:43;96716.16;;;11.30;100.00
63121;BME280;54478;48.684;20.114;2023-03-25T02:50:10;96708.75;;;11.33;100.00
63121;BME280;54478;48.684;20.114;2023-03-25T02:52:48;96712.38;;;11.41;100.00
63121;BME280;54478;48.684;20.114;2023-03-25T02:55:19;96713.44;;;11.38;100.00
63121;BME280;54478;48.684;20.114;2023-03-25T02:57:49;96698.22;;;11.39;100.00
63121;BME280;54478;48.684;20.114;2023-03-25T03:00:23;96702.28;;;11.59;100.00
63121;BME280;54478;48.684;20.114;2023-03-25T03:02:54;96703.38;;;11.56;100.00
63121;BME280;54478;48.684;20.114;2023-03-25T03:05:28;96701.53;;;11.59;100.00
63121;BME280;54478;48.684;20.114;2023-03-25T03:16:20;96699.28;;;11.57;100.00
63121;BME280;54478;48.684;20.114;2023-03-25T03:19:00;96702.13;;;11.65;100.00
63121;BME280;54478;48.684;20.114;2023-03-25T03:24:31;96681.41;;;11.52;100.00
63121;BME280;54478;48.684;20.114;2023-03-25T03:29:46;96694.09;;;11.61;100.00
63121;BME280;54478;48.684;20.114;2023-03-25T03:32:20;96701.63;;;11.74;100.00
63121;BME280;54478;48.684;20.114;2023-03-25T03:34:56;96682.34;;;11.55;100.00
63121;BME280;54478;48.684;20.114;2023-03-25T03:37:31;96691.28;;;11.82;100.00
63121;BME280;54478;48.684;20.114;2023-03-25T03:39:57;96686.25;;;11.81;100.00
63121;BME280;54478;48.684;20.114;2023-03-25T03:42:34;96687.50;;;12.01;100.00
63121;BME280;54478;48.684;20.114;2023-03-25T03:45:13;96669.19;;;12.13;100.00
63121;BME280;54478;48.684;20.114;2023-03-25T03:47:46;96657.69;;;11.59;100.00
63121;BME280;54478;48.684;20.114;2023-03-25T03:50:18;96655.09;;;11.61;100.00
63121;BME280;54478;48.684;20.114;2023-03-25T03:52:58;96652.75;;;11.73;100.00
63121;BME280;54478;48.684;20.114;2023-03-25T03:55:29;96652.25;;;11.54;100.00
63121;BME280;54478;48.684;20.114;2023-03-25T03:58:05;96652.47;;;11.56;100.00
63121;BME280;54478;48.684;20.114;2023-03-25T04:03:58;96664.34;;;11.56;100.00
63121;BME280;54478;48.684;20.114;2023-03-25T04:06:28;96668.63;;;11.57;100.00
63121;BME280;54478;48.684;20.114;2023-03-25T04:09:18;96674.25;;;11.36;100.00
63121;BME280;54478;48.684;20.114;2023-03-25T04:12:13;96712.63;;;11.51;100.00
63121;BME280;54478;48.684;20.114;2023-03-25T04:14:43;96699.56;;;11.46;100.00
63121;BME280;54478;48.684;20.114;2023-03-25T04:17:10;96707.44;;;11.55;100.00
63121;BME280;54478;48.684;20.114;2023-03-25T04:19:38;96711.06;;;11.42;100.00
63121;BME280;54478;48.684;20.114;2023-03-25T04:22:07;96710.66;;;11.17;100.00
63121;BME280;54478;48.684;20.114;2023-03-25T04:24:35;96691.84;;;11.10;100.00
63121;BME280;54478;48.684;20.114;2023-03-25T04:27:04;96670.25;;;11.24;100.00
63121;BME280;54478;48.684;20.114;2023-03-25T04:29:33;96642.91;;;11.43;100.00
63121;BME280;54478;48.684;20.114;2023-03-25T04:32:01;96628.97;;;11.14;100.00
63121;BME280;54478;48.684;20.114;2023-03-25T04:34:29;96625.28;;;11.19;100.00
63121;BME280;54478;48.684;20.114;2023-03-25T04:36:58;96653.25;;;11.35;100.00
63121;BME280;54478;48.684;20.114;2023-03-25T04:39:26;96680.09;;;11.25;100.00
63121;BME280;54478;48.684;20.114;2023-03-25T04:41:57;96704.13;;;11.35;100.00
63121;BME280;54478;48.684;20.114;2023-03-25T04:44:31;96682.88;;;11.25;100.00
63121;BME280;54478;48.684;20.114;2023-03-25T04:47:04;96773.84;;;11.22;100.00
63121;BME280;54478;48.684;20.114;2023-03-25T04:49:33;96835.13;;;11.22;100.00
63121;BME280;54478;48.684;20.114;2023-03-25T04:52:02;96857.78;;;11.40;100.00
63121;BME280;54478;48.684;20.114;2023-03-25T04:54:31;96862.84;;;11.62;100.00
63121;BME280;54478;48.684;20.114;2023-03-25T04:56:59;96878.53;;;11.52;100.00
63121;BME280;54478;48.684;20.114;2023-03-25T04:59:28;96883.38;;;11.73;100.00
63121;BME280;54478;48.684;20.114;2023-03-25T05:01:56;96880.66;;;11.80;100.00
63121;BME280;54478;48.684;20.114;2023-03-25T05:04:25;96883.28;;;11.44;100.00
63121;BME280;54478;48.684;20.114;2023-03-25T05:06:53;96909.44;;;11.41;100.00
63121;BME280;54478;48.684;20.114;2023-03-25T05:09:24;96905.13;;;11.53;100.00
63121;BME280;54478;48.684;20.114;2023-03-25T05:11:52;96896.34;;;11.49;100.00
63121;BME280;54478;48.684;20.114;2023-03-25T05:14:21;96894.00;;;11.40;100.00
63121;BME280;54478;48.684;20.114;2023-03-25T05:16:49;96902.06;;;11.64;100.00
63121;BME280;54478;48.684;20.114;2023-03-25T05:19:17;96902.06;;;11.64;100.00
63121;BME280;54478;48.684;20.114;2023-03-25T05:21:45;96890.88;;;11.43;100.00
63121;BME280;54478;48.684;20.114;2023-03-25T05:24:15;96898.19;;;11.67;100.00
63121;BME280;54478;48.684;20.114;2023-03-25T05:26:43;96894.91;;;11.56;100.00
63121;BME280;54478;48.684;20.114;2023-03-25T05:29:14;96903.13;;;11.40;100.00
63121;BME280;54478;48.684;20.114;2023-03-25T05:31:44;96897.25;;;11.30;100.00
63121;BME280;54478;48.684;20.114;2023-03-25T05:34:13;96922.25;;;11.57;100.00
63121;BME280;54478;48.684;20.114;2023-03-25T05:36:44;96932.53;;;11.83;100.00
63121;BME280;54478;48.684;20.114;2023-03-25T05:39:12;96929.19;;;11.98;100.00
63121;BME280;54478;48.684;20.114;2023-03-25T05:41:40;96910.66;;;11.88;100.00
63121;BME280;54478;48.684;20.114;2023-03-25T05:44:09;96916.81;;;11.73;100.00
63121;BME280;54478;48.684;20.114;2023-03-25T05:46:39;96919.16;;;11.47;100.00
63121;BME280;54478;48.684;20.114;2023-03-25T05:49:07;96940.41;;;11.72;100.00
63121;BME280;54478;48.684;20.114;2023-03-25T05:51:36;96938.09;;;11.97;100.00
63121;BME280;54478;48.684;20.114;2023-03-25T05:54:05;96926.22;;;11.62;100.00
63121;BME280;54478;48.684;20.114;2023-03-25T05:56:38;96943.00;;;11.70;100.00
63121;BME280;54478;48.684;20.114;2023-03-25T05:59:07;96962.44;;;11.48;100.00
63121;BME280;54478;48.684;20.114;2023-03-25T06:01:36;96849.78;;;11.57;100.00
63121;BME280;54478;48.684;20.114;2023-03-25T06:04:05;96835.69;;;11.63;100.00
63121;BME280;54478;48.684;20.114;2023-03-25T06:06:38;96871.03;;;11.47;100.00
63121;BME280;54478;48.684;20.114;2023-03-25T06:09:07;96910.22;;;11.83;100.00
63121;BME280;54478;48.684;20.114;2023-03-25T06:11:35;96932.91;;;11.80;100.00
63121;BME280;54478;48.684;20.114;2023-03-25T06:14:13;96924.38;;;11.85;100.00
63121;BME280;54478;48.684;20.114;2023-03-25T06:16:38;96948.78;;;12.06;100.00
63121;BME280;54478;48.684;20.114;2023-03-25T06:19:07;96958.25;;;11.90;100.00
63121;BME280;54478;48.684;20.114;2023-03-25T06:21:36;96966.13;;;11.78;100.00
63121;BME280;54478;48.684;20.114;2023-03-25T06:24:05;96988.91;;;11.55;100.00
63121;BME280;54478;48.684;20.114;2023-03-25T06:26:34;97093.28;;;11.81;100.00
63121;BME280;54478;48.684;20.114;2023-03-25T06:29:02;97355.16;;;11.98;100.00
63121;BME280;54478;48.684;20.114;2023-03-25T06:31:31;97377.97;;;11.96;100.00
63121;BME280;54478;48.684;20.114;2023-03-25T06:34:00;97399.09;;;12.38;100.00
63121;BME280;54478;48.684;20.114;2023-03-25T06:36:29;97388.91;;;12.54;100.00
63121;BME280;54478;48.684;20.114;2023-03-25T06:38:58;97395.56;;;12.64;100.00
63121;BME280;54478;48.684;20.114;2023-03-25T06:41:26;97382.56;;;12.80;100.00
63121;BME280;54478;48.684;20.114;2023-03-25T06:43:55;97352.53;;;12.46;100.00
63121;BME280;54478;48.684;20.114;2023-03-25T06:46:20;97347.69;;;12.46;100.00
63121;BME280;54478;48.684;20.114;2023-03-25T06:48:48;97354.34;;;12.57;100.00
63121;BME280;54478;48.684;20.114;2023-03-25T06:51:17;97346.16;;;12.86;100.00
63121;BME280;54478;48.684;20.114;2023-03-25T06:53:45;97343.97;;;12.92;100.00
63121;BME280;54478;48.684;20.114;2023-03-25T06:56:14;97339.50;;;12.75;100.00
63121;BME280;54478;48.684;20.114;2023-03-25T06:58:42;97333.50;;;12.58;100.00
63121;BME280;54478;48.684;20.114;2023-03-25T07:01:11;97364.72;;;12.96;100.00
63121;BME280;54478;48.684;20.114;2023-03-25T07:03:39;97389.69;;;13.29;100.00
63121;BME280;54478;48.684;20.114;2023-03-25T07:06:14;97370.03;;;13.21;100.00
63121;BME280;54478;48.684;20.114;2023-03-25T07:08:43;97360.22;;;12.80;100.00
63121;BME280;54478;48.684;20.114;2023-03-25T07:11:11;97356.78;;;12.87;100.00
63121;BME280;54478;48.684;20.114;2023-03-25T07:13:41;97372.56;;;12.98;100.00
63121;BME280;54478;48.684;20.114;2023-03-25T07:16:09;97388.25;;;12.88;100.00
63121;BME280;54478;48.684;20.114;2023-03-25T07:18:38;97391.47;;;12.78;100.00
63121;BME280;54478;48.684;20.114;2023-03-25T07:21:06;97405.13;;;12.55;100.00
63121;BME280;54478;48.684;20.114;2023-03-25T07:23:35;97425.44;;;12.69;100.00
63121;BME280;54478;48.684;20.114;2023-03-25T07:26:03;97425.41;;;12.42;100.00
63121;BME280;54478;48.684;20.114;2023-03-25T07:28:32;97441.19;;;12.40;100.00
63121;BME280;54478;48.684;20.114;2023-03-25T07:30:58;97458.28;;;12.17;100.00
63121;BME280;54478;48.684;20.114;2023-03-25T07:33:24;97505.53;;;12.28;100.00
63121;BME280;54478;48.684;20.114;2023-03-25T07:35:52;97526.97;;;12.39;100.00
63121;BME280;54478;48.684;20.114;2023-03-25T07:38:20;97570.88;;;12.20;100.00
63121;BME280;54478;48.684;20.114;2023-03-25T07:40:48;97603.16;;;12.34;100.00
63121;BME280;54478;48.684;20.114;2023-03-25T07:43:17;97633.84;;;12.15;100.00
63121;BME280;54478;48.684;20.114;2023-03-25T07:45:42;97657.59;;;12.22;100.00
63121;BME280;54478;48.684;20.114;2023-03-25T07:48:11;97676.56;;;12.80;100.00
63121;BME280;54478;48.684;20.114;2023-03-25T07:50:42;97673.44;;;12.52;100.00
63121;BME280;54478;48.684;20.114;2023-03-25T07:53:10;97680.13;;;12.62;100.00
63121;BME280;54478;48.684;20.114;2023-03-25T07:55:39;97679.22;;;12.73;100.00
63121;BME280;54478;48.684;20.114;2023-03-25T07:58:07;97704.72;;;12.63;100.00
63121;BME280;54478;48.684;20.114;2023-03-25T08:00:36;97704.38;;;12.54;100.00
63121;BME280;54478;48.684;20.114;2023-03-25T08:03:04;97698.53;;;12.71;100.00
63121;BME280;54478;48.684;20.114;2023-03-25T08:05:33;97694.03;;;12.68;100.00
63121;BME280;54478;48.684;20.114;2023-03-25T08:08:04;97695.91;;;12.78;100.00
63121;BME280;54478;48.684;20.114;2023-03-25T08:10:32;97702.56;;;13.08;100.00
63121;BME280;54478;48.684;20.114;2023-03-25T08:13:02;97703.72;;;12.99;100.00
63121;BME280;54478;48.684;20.114;2023-03-25T08:15:30;97716.25;;;13.25;100.00
63121;BME280;54478;48.684;20.114;2023-03-25T08:17:58;97701.66;;;13.32;100.00
63121;BME280;54478;48.684;20.114;2023-03-25T08:20:27;97688.53;;;13.27;100.00
63121;BME280;54478;48.684;20.114;2023-03-25T08:22:56;97692.00;;;13.33;100.00
63121;BME280;54478;48.684;20.114;2023-03-25T08:25:25;97680.31;;;13.48;100.00
63121;BME280;54478;48.684;20.114;2023-03-25T08:27:55;97670.97;;;13.59;100.00
63121;BME280;54478;48.684;20.114;2023-03-25T08:30:23;97649.13;;;13.44;100.00
63121;BME280;54478;48.684;20.114;2023-03-25T08:32:51;97624.56;;;13.23;100.00
63121;BME280;54478;48.684;20.114;2023-03-25T08:35:22;97626.03;;;13.57;100.00
63121;BME280;54478;48.684;20.114;2023-03-25T08:37:51;97604.53;;;13.38;100.00
63121;BME280;54478;48.684;20.114;2023-03-25T08:40:19;97579.97;;;13.44;100.00
63121;BME280;54478;48.684;20.114;2023-03-25T08:42:48;97577.19;;;13.58;100.00
63121;BME280;54478;48.684;20.114;2023-03-25T08:45:16;97569.66;;;13.39;100.00
63121;BME280;54478;48.684;20.114;2023-03-25T08:47:45;97568.34;;;13.80;100.00
63121;BME280;54478;48.684;20.114;2023-03-25T08:50:13;97567.50;;;13.45;100.00
63121;BME280;54478;48.684;20.114;2023-03-25T08:52:41;97549.63;;;14.23;100.00
63121;BME280;54478;48.684;20.114;2023-03-25T08:55:10;97522.91;;;14.22;100.00
63121;BME280;54478;48.684;20.114;2023-03-25T08:57:38;97510.00;;;14.19;100.00
63121;BME280;54478;48.684;20.114;2023-03-25T09:00:07;97488.28;;;14.33;100.00
63121;BME280;54478;48.684;20.114;2023-03-25T09:02:40;97464.28;;;14.38;100.00
63121;BME280;54478;48.684;20.114;2023-03-25T09:05:10;97448.03;;;14.36;100.00
63121;BME280;54478;48.684;20.114;2023-03-25T09:07:39;97369.94;;;14.83;100.00
63121;BME280;54478;48.684;20.114;2023-03-25T09:10:08;97253.09;;;15.14;100.00
63121;BME280;54478;48.684;20.114;2023-03-25T09:12:36;97093.25;;;15.68;100.00
63121;BME280;54478;48.684;20.114;2023-03-25T09:15:05;96984.44;;;14.87;100.00
63121;BME280;54478;48.684;20.114;2023-03-25T09:17:34;96880.16;;;15.04;100.00
63121;BME280;54478;48.684;20.114;2023-03-25T09:20:03;96841.00;;;14.89;100.00
63121;BME280;54478;48.684;20.114;2023-03-25T09:22:32;96765.63;;;14.60;100.00
63121;BME280;54478;48.684;20.114;2023-03-25T09:25:01;96731.31;;;14.67;100.00
63121;BME280;54478;48.684;20.114;2023-03-25T09:27:29;96688.63;;;14.43;100.00
63121;BME280;54478;48.684;20.114;2023-03-25T09:29:57;96645.66;;;14.48;100.00
63121;BME280;54478;48.684;20.114;2023-03-25T09:32:26;96632.97;;;14.47;100.00
63121;BME280;54478;48.684;20.114;2023-03-25T09:34:54;96651.69;;;14.37;100.00
63121;BME280;54478;48.684;20.114;2023-03-25T09:37:23;96621.56;;;14.53;100.00
63121;BME280;54478;48.684;20.114;2023-03-25T09:39:51;96615.34;;;14.62;100.00
63121;BME280;54478;48.684;20.114;2023-03-25T09:47:36;96601.00;;;14.66;100.00
63121;BME280;54478;48.684;20.114;2023-03-25T09:50:09;96599.56;;;15.08;100.00
63121;BME280;54478;48.684;20.114;2023-03-25T09:55:33;96588.25;;;15.41;100.00
63121;BME280;54478;48.684;20.114;2023-03-25T09:58:28;96614.78;;;14.97;100.00
63121;BME280;54478;48.684;20.114;2023-03-25T10:01:11;96583.03;;;15.37;100.00
63121;BME280;54478;48.684;20.114;2023-03-25T10:06:55;96579.00;;;15.31;100.00
63121;BME280;54478;48.684;20.114;2023-03-25T10:12:19;96572.50;;;15.81;100.00
63121;BME280;54478;48.684;20.114;2023-03-25T10:18:04;96557.38;;;16.11;100.00
63121;BME280;54478;48.684;20.114;2023-03-25T10:26:18;96605.03;;;16.46;100.00
63121;BME280;54478;48.684;20.114;2023-03-25T10:28:55;96583.25;;;17.01;100.00
63121;BME280;54478;48.684;20.114;2023-03-25T10:31:23;96620.91;;;16.88;100.00
63121;BME280;54478;48.684;20.114;2023-03-25T10:33:57;96624.53;;;16.99;100.00
63121;BME280;54478;48.684;20.114;2023-03-25T10:36:33;96671.19;;;17.12;100.00
63121;BME280;54478;48.684;20.114;2023-03-25T10:39:09;96673.91;;;16.47;100.00
63121;BME280;54478;48.684;20.114;2023-03-25T10:41:38;96696.72;;;16.34;100.00
63121;BME280;54478;48.684;20.114;2023-03-25T10:44:09;96668.06;;;16.35;100.00
63121;BME280;54478;48.684;20.114;2023-03-25T10:46:42;96693.16;;;16.96;100.00
63121;BME280;54478;48.684;20.114;2023-03-25T10:49:20;96706.47;;;17.22;100.00
63121;BME280;54478;48.684;20.114;2023-03-25T10:51:50;96721.63;;;17.09;100.00
63121;BME280;54478;48.684;20.114;2023-03-25T10:54:26;96708.81;;;16.71;100.00
63121;BME280;54478;48.684;20.114;2023-03-25T10:56:55;96747.84;;;16.32;100.00
63121;BME280;54478;48.684;20.114;2023-03-25T10:59:32;96735.28;;;16.16;100.00
63121;BME280;54478;48.684;20.114;2023-03-25T11:02:22;96745.72;;;16.23;100.00
63121;BME280;54478;48.684;20.114;2023-03-25T11:05:00;96765.28;;;17.11;100.00
63121;BME280;54478;48.684;20.114;2023-03-25T11:07:38;96789.00;;;17.91;100.00
63121;BME280;54478;48.684;20.114;2023-03-25T11:10:21;96798.31;;;18.31;100.00
63121;BME280;54478;48.684;20.114;2023-03-25T11:12:49;96823.09;;;18.43;100.00
63121;BME280;54478;48.684;20.114;2023-03-25T11:15:24;96825.81;;;18.99;100.00
63121;BME280;54478;48.684;20.114;2023-03-25T11:18:03;96842.53;;;18.78;100.00
63121;BME280;54478;48.684;20.114;2023-03-25T11:20:47;96888.63;;;18.33;100.00
63121;BME280;54478;48.684;20.114;2023-03-25T11:23:34;96888.06;;;17.53;100.00
63121;BME280;54478;48.684;20.114;2023-03-25T11:26:27;96893.22;;;17.47;100.00
63121;BME280;54478;48.684;20.114;2023-03-25T11:29:00;96885.03;;;17.41;100.00
63121;BME280;54478;48.684;20.114;2023-03-25T11:31:33;96886.16;;;17.55;100.00
63121;BME280;54478;48.684;20.114;2023-03-25T11:34:16;96876.41;;;19.17;100.00
63121;BME280;54478;48.684;20.114;2023-03-25T11:36:54;96894.94;;;19.59;100.00
63121;BME280;54478;48.684;20.114;2023-03-25T11:41:54;96941.19;;;18.78;100.00
63121;BME280;54478;48.684;20.114;2023-03-25T11:44:25;96958.63;;;18.10;100.00
63121;BME280;54478;48.684;20.114;2023-03-25T11:46:55;96955.97;;;18.12;100.00
63121;BME280;54478;48.684;20.114;2023-03-25T11:49:25;96960.25;;;17.85;100.00
63121;BME280;54478;48.684;20.114;2023-03-25T11:52:00;96959.41;;;19.23;100.00
63121;BME280;54478;48.684;20.114;2023-03-25T11:54:28;96955.28;;;18.68;100.00
63121;BME280;54478;48.684;20.114;2023-03-25T11:56:57;96951.88;;;20.07;100.00
63121;BME280;54478;48.684;20.114;2023-03-25T11:59:35;96961.00;;;19.85;100.00
63121;BME280;54478;48.684;20.114;2023-03-25T12:02:34;96964.53;;;20.06;100.00
63121;BME280;54478;48.684;20.114;2023-03-25T12:07:46;96990.00;;;18.33;100.00
63121;BME280;54478;48.684;20.114;2023-03-25T12:10:30;96983.31;;;18.66;100.00
63121;BME280;54478;48.684;20.114;2023-03-25T12:13:08;96975.69;;;18.96;100.00
63121;BME280;54478;48.684;20.114;2023-03-25T12:21:46;96984.34;;;19.37;100.00
63121;BME280;54478;48.684;20.114;2023-03-25T12:29:07;96955.03;;;20.74;100.00
63121;BME280;54478;48.684;20.114;2023-03-25T12:46:29;96983.72;;;17.53;100.00
63121;BME280;54478;48.684;20.114;2023-03-25T13:03:14;97003.41;;;17.53;100.00
63121;BME280;54478;48.684;20.114;2023-03-25T13:05:59;97000.75;;;17.72;100.00
63121;BME280;54478;48.684;20.114;2023-03-25T13:08:36;97006.97;;;17.53;100.00
63121;BME280;54478;48.684;20.114;2023-03-25T13:11:16;97029.59;;;18.08;100.00
63121;BME280;54478;48.684;20.114;2023-03-25T13:13:48;96991.91;;;19.15;100.00
63121;BME280;54478;48.684;20.114;2023-03-25T13:16:19;97000.72;;;18.07;100.00
63121;BME280;54478;48.684;20.114;2023-03-25T13:18:59;97027.66;;;16.88;100.00
63121;BME280;54478;48.684;20.114;2023-03-25T13:21:34;97005.00;;;17.11;100.00
63121;BME280;54478;48.684;20.114;2023-03-25T13:24:10;97016.03;;;16.91;100.00
63121;BME280;54478;48.684;20.114;2023-03-25T13:26:39;97005.81;;;16.79;100.00
63121;BME280;54478;48.684;20.114;2023-03-25T13:29:21;96993.47;;;17.69;100.00
63121;BME280;54478;48.684;20.114;2023-03-25T13:31:49;97001.59;;;17.48;100.00
63121;BME280;54478;48.684;20.114;2023-03-25T13:34:42;96981.88;;;18.84;100.00
63121;BME280;54478;48.684;20.114;2023-03-25T13:37:20;96971.81;;;19.99;100.00
63121;BME280;54478;48.684;20.114;2023-03-25T13:45:19;97009.28;;;17.12;100.00
63121;BME280;54478;48.684;20.114;2023-03-25T13:50:30;97008.41;;;16.34;100.00
63121;BME280;54478;48.684;20.114;2023-03-25T13:58:52;97025.88;;;15.76;100.00
63121;BME280;54478;48.684;20.114;2023-03-25T14:01:42;97015.22;;;15.82;100.00
63121;BME280;54478;48.684;20.114;2023-03-25T14:12:59;97003.25;;;15.18;100.00
63121;BME280;54478;48.684;20.114;2023-03-25T14:15:34;97009.97;;;15.15;100.00
63121;BME280;54478;48.684;20.114;2023-03-25T14:18:04;96998.44;;;14.95;100.00
63121;BME280;54478;48.684;20.114;2023-03-25T14:20:37;97012.06;;;15.14;100.00
63121;BME280;54478;48.684;20.114;2023-03-25T14:23:11;97007.91;;;15.79;100.00
63121;BME280;54478;48.684;20.114;2023-03-25T14:25:41;96991.38;;;16.57;100.00
63121;BME280;54478;48.684;20.114;2023-03-25T14:28:15;96984.66;;;18.00;100.00
63121;BME280;54478;48.684;20.114;2023-03-25T14:30:43;96957.91;;;19.22;100.00
63121;BME280;54478;48.684;20.114;2023-03-25T14:33:10;96949.41;;;19.71;100.00
63121;BME280;54478;48.684;20.114;2023-03-25T14:43:21;96947.75;;;22.14;100.00
63121;BME280;54478;48.684;20.114;2023-03-25T14:46:23;96933.75;;;22.40;100.00
63121;BME280;54478;48.684;20.114;2023-03-25T14:49:09;96924.00;;;22.55;100.00
63121;BME280;54478;48.684;20.114;2023-03-25T14:51:45;96912.19;;;23.08;100.00
63121;BME280;54478;48.684;20.114;2023-03-25T14:59:44;96917.53;;;23.02;100.00
63121;BME280;54478;48.684;20.114;2023-03-25T15:04:52;96930.81;;;21.69;100.00
63121;BME280;54478;48.684;20.114;2023-03-25T15:07:44;96953.41;;;19.88;100.00
63121;BME280;54478;48.684;20.114;2023-03-25T15:10:26;96957.72;;;19.89;100.00
63121;BME280;54478;48.684;20.114;2023-03-25T15:13:03;96931.88;;;20.56;100.00
63121;BME280;54478;48.684;20.114;2023-03-25T15:15:52;96962.22;;;19.43;100.00
63121;BME280;54478;48.684;20.114;2023-03-25T15:21:10;96980.88;;;18.99;100.00
63121;BME280;54478;48.684;20.114;2023-03-25T15:26:26;96983.25;;;18.93;100.00
63121;BME280;54478;48.684;20.114;2023-03-25T15:29:23;96973.78;;;19.47;100.00